Time;durP1;ratioP1;P1;durP2;ratioP2;P2;SDS_P1;SDS_P2;PMS_P1;PMS_P2;Temp;Humidity;BMP_temperature;BMP_pressure;BME280_temperature;BME280_humidity;BME280_pressure;Samples;Min_cycle;Max_cycle;Signal;HPM_P1;HPM_P2
2022/02/27 00:01:23;;;;;;;20.00;9.65;;;;;;;1.61;92.45;103298.84;5134683;27;20034;-35
2022/02/27 00:03:48;;;;;;;19.10;9.73;;;;;;;1.61;92.50;103301.50;5134175;27;20485;-35
2022/02/27 00:06:13;;;;;;;16.83;9.43;;;;;;;1.63;93.32;103302.25;5134478;28;20027;-35
2022/02/27 00:08:39;;;;;;;15.20;8.83;;;;;;;1.67;95.08;103285.91;5133888;27;20027;-35
2022/02/27 00:11:04;;;;;;;21.50;10.60;;;;;;;1.67;93.72;103301.06;5134065;27;20019;-36
2022/02/27 00:13:30;;;;;;;22.02;10.20;;;;;;;1.64;92.52;103294.13;5133791;27;20374;-36
2022/02/27 00:15:55;;;;;;;22.10;9.83;;;;;;;1.63;93.03;103289.78;5133932;27;20023;-36
2022/02/27 00:18:20;;;;;;;21.47;9.10;;;;;;;1.64;94.82;103279.94;5133266;27;20080;-36
2022/02/27 00:20:47;;;;;;;19.77;10.00;;;;;;;1.50;93.17;103281.81;5136864;27;20055;-35
2022/02/27 00:23:12;;;;;;;;;;;;;;;1.64;92.77;103294.13;5138019;27;20034;-35
2022/02/27 00:25:37;;;;;;;18.88;8.70;;;;;;;1.42;92.21;103291.34;5138137;27;19908;-35
2022/02/27 00:28:03;;;;;;;19.23;8.80;;;;;;;1.48;91.92;103301.56;5137559;27;20067;-36
2022/02/27 00:30:28;;;;;;;17.33;8.57;;;;;;;1.55;93.37;103302.81;5137455;27;20493;-36
2022/02/27 00:32:54;;;;;;;14.90;7.60;;;;;;;1.55;94.22;103297.47;5137319;27;20033;-35
2022/02/27 00:35:19;;;;;;;16.67;8.77;;;;;;;1.43;93.85;103288.56;5138213;27;20026;-35
2022/02/27 00:37:45;;;;;;;16.50;8.17;;;;;;;1.46;93.36;103298.13;5137290;27;20594;-35
2022/02/27 00:40:12;;;;;;;16.65;8.65;;;;;;;1.44;93.05;103284.91;5137940;27;20076;-35
2022/02/27 00:42:37;;;;;;;19.48;8.68;;;;;;;1.38;91.67;103292.53;5137498;27;20482;-36
2022/02/27 00:45:04;;;;;;;18.87;9.47;;;;;;;1.40;92.21;103301.25;5136875;27;20023;-35
2022/02/27 00:47:29;;;;;;;18.60;8.43;;;;;;;1.25;91.31;103290.72;5137033;27;20040;-35
2022/02/27 00:49:55;;;;;;;14.47;7.67;;;;;;;1.25;92.71;103273.88;5137130;27;20050;-35
2022/02/27 00:52:22;;;;;;;19.73;8.63;;;;;;;1.22;91.47;103290.09;5136938;27;20027;-35
2022/02/27 00:54:49;;;;;;;12.68;6.78;;;;;;;1.35;93.99;103285.59;5137177;27;20027;-35
2022/02/27 00:57:15;;;;;;;17.70;8.05;;;;;;;1.14;92.47;103282.66;5137705;27;20101;-36
2022/02/27 00:59:44;;;;;;;14.10;7.30;;;;;;;1.19;92.03;103288.50;5136945;27;20426;-36
2022/02/27 01:02:10;;;;;;;15.20;7.35;;;;;;;1.13;92.26;103286.28;5136587;27;20043;-35
2022/02/27 01:04:35;;;;;;;16.27;7.78;;;;;;;1.23;92.85;103292.66;5134926;27;20035;-36
2022/02/27 01:07:00;;;;;;;16.67;7.67;;;;;;;1.08;91.14;103272.44;5137239;27;20073;-35
2022/02/27 01:09:26;;;;;;;12.17;6.67;;;;;;;1.07;91.58;103278.72;5137093;27;20023;-35
2022/02/27 01:11:51;;;;;;;13.43;6.90;;;;;;;1.12;91.59;103278.38;5136653;27;20034;-35
2022/02/27 01:14:16;;;;;;;12.17;6.17;;;;;;;1.09;91.06;103268.81;5136200;27;20023;-35
2022/02/27 01:16:42;;;;;;;12.70;6.20;;;;;;;1.19;91.47;103277.00;5136399;27;20059;-35
2022/02/27 01:19:08;;;;;;;18.07;7.00;;;;;;;1.10;90.66;103281.16;5136344;27;20030;-35
2022/02/27 01:21:34;;;;;;;13.88;6.90;;;;;;;0.97;92.38;103249.19;5137387;27;20026;-35
2022/02/27 01:23:59;;;;;;;13.13;6.47;;;;;;;1.03;90.48;103277.25;5136474;27;20531;-35
2022/02/27 01:26:24;;;;;;;13.30;6.43;;;;;;;1.01;91.52;103257.84;5136704;27;20412;-36
2022/02/27 01:28:50;;;;;;;16.57;5.63;;;;;;;1.11;92.16;103276.69;5136383;27;20364;-36
2022/02/27 01:31:15;;;;;;;15.23;6.10;;;;;;;0.94;91.60;103241.44;5136285;27;20020;-36
2022/02/27 01:33:41;;;;;;;12.40;6.27;;;;;;;1.15;92.63;103272.84;5136263;27;20509;-36
2022/02/27 01:36:07;;;;;;;14.37;5.73;;;;;;;0.98;91.59;103239.41;5136141;27;20141;-36
2022/02/27 01:38:32;;;;;;;10.85;5.88;;;;;;;1.15;91.63;103273.69;5136218;27;20037;-36
2022/02/27 01:40:59;;;;;;;12.60;6.43;;;;;;;1.12;91.47;103279.22;5135217;27;20424;-36
2022/02/27 01:43:24;;;;;;;;;;;;;;;1.18;91.42;103273.47;5136523;27;20029;-36
2022/02/27 01:45:50;;;;;;;16.40;6.00;;;;;;;1.01;91.39;103256.03;5136800;27;19911;-36
2022/02/27 01:48:15;;;;;;;12.90;5.57;;;;;;;1.08;91.30;103259.13;5136185;27;20348;-36
2022/02/27 01:50:40;;;;;;;10.70;5.47;;;;;;;1.13;91.44;103269.44;5136515;27;20053;-36
2022/02/27 01:53:05;;;;;;;11.80;5.63;;;;;;;1.12;90.90;103267.72;5134983;27;20081;-36
2022/02/27 01:55:31;;;;;;;9.83;5.03;;;;;;;1.13;90.79;103270.31;5135615;27;20034;-36
2022/02/27 01:57:56;;;;;;;10.73;5.93;;;;;;;1.15;90.94;103267.50;5135480;27;20027;-36
2022/02/27 02:00:22;;;;;;;11.52;5.35;;;;;;;1.16;91.39;103263.88;5136100;27;20034;-36
2022/02/27 02:02:48;;;;;;;12.18;5.57;;;;;;;1.19;92.47;103258.34;5135739;27;20023;-36
2022/02/27 02:05:14;;;;;;;13.20;5.10;;;;;;;1.12;91.28;103268.56;5136241;27;20031;-36
2022/02/27 02:07:40;;;;;;;;;;;;;;;1.20;91.37;103268.03;5135789;27;20050;-36
2022/02/27 02:10:06;;;;;;;11.95;4.72;;;;;;;1.09;91.25;103263.47;5135857;27;19907;-36
2022/02/27 02:12:32;;;;;;;16.40;5.18;;;;;;;0.97;91.21;103251.88;5135127;27;20031;-36
2022/02/27 02:14:58;;;;;;;14.25;5.05;;;;;;;1.02;90.31;103256.88;5135604;27;20031;-36
2022/02/27 02:17:24;;;;;;;;;;;;;;;1.13;90.69;103270.31;5135807;27;20485;-36
2022/02/27 02:19:53;;;;;;;14.17;4.83;;;;;;;1.03;90.78;103264.78;5135675;27;19914;-36
2022/02/27 02:22:18;;;;;;;11.80;4.85;;;;;;;1.06;91.28;103268.16;5135080;27;20355;-36
2022/02/27 02:24:44;;;;;;;12.10;5.40;;;;;;;1.02;90.74;103259.53;5135524;27;20023;-36
2022/02/27 02:27:09;;;;;;;8.57;4.70;;;;;;;1.04;91.06;103260.28;5135023;27;20809;-36
2022/02/27 02:29:35;;;;;;;9.02;4.53;;;;;;;0.92;90.45;103251.34;5135552;27;20457;-36
2022/02/27 02:32:00;;;;;;;11.27;4.80;;;;;;;0.97;92.49;103248.34;5135288;27;20023;-36
2022/02/27 02:34:26;;;;;;;11.50;4.57;;;;;;;0.95;91.31;103258.28;5135344;27;20085;-36
2022/02/27 02:36:52;;;;;;;11.10;4.90;;;;;;;0.86;90.14;103261.59;5135334;27;20354;-36
2022/02/27 02:39:20;;;;;;;12.52;4.88;;;;;;;0.89;90.12;103264.06;5135713;27;20023;-36
2022/02/27 02:41:45;;;;;;;11.32;4.75;;;;;;;0.88;91.01;103257.88;5134647;27;20110;-36
2022/02/27 02:44:12;;;;;;;11.75;5.15;;;;;;;0.90;91.08;103253.28;5135248;27;20100;-36
2022/02/27 02:46:37;;;;;;;9.82;4.70;;;;;;;0.85;90.26;103259.91;5135226;27;20027;-36
2022/02/27 02:49:04;;;;;;;11.30;4.40;;;;;;;0.87;90.94;103242.81;5134880;27;20379;-36
2022/02/27 02:51:30;;;;;;;10.98;4.10;;;;;;;0.85;91.78;103235.91;5135523;27;20030;-36
2022/02/27 02:53:55;;;;;;;9.13;4.40;;;;;;;0.89;92.24;103242.75;5134863;27;20023;-36
2022/02/27 02:56:21;;;;;;;13.13;4.70;;;;;;;0.91;91.68;103246.13;5135364;27;20368;-36
2022/02/27 02:58:47;;;;;;;13.30;4.80;;;;;;;0.92;91.68;103239.84;5134733;27;20151;-36
2022/02/27 03:01:14;;;;;;;12.23;4.63;;;;;;;0.77;90.85;103228.47;5134492;27;20400;-36
2022/02/27 03:03:42;;;;;;;11.88;4.53;;;;;;;0.84;90.68;103242.22;5135206;27;20034;-36
2022/02/27 03:06:11;;;;;;;9.23;4.30;;;;;;;0.87;91.04;103232.16;5135054;27;20414;-36
2022/02/27 03:08:47;;;;;;;14.55;4.78;;;;;;;0.80;90.83;103240.72;5134500;27;20436;-36
2022/02/27 03:11:17;;;;;;;12.00;4.83;;;;;;;0.77;90.47;103236.44;5134806;27;20130;-36
2022/02/27 03:13:42;;;;;;;9.35;4.07;;;;;;;0.76;90.45;103238.25;5134290;27;20089;-36
2022/02/27 03:16:08;;;;;;;9.85;4.35;;;;;;;0.67;90.51;103230.06;5134545;27;20428;-36
2022/02/27 03:18:33;;;;;;;9.13;4.53;;;;;;;0.69;91.82;103220.19;5134256;27;20027;-36
2022/02/27 03:20:59;;;;;;;9.67;3.90;;;;;;;0.66;90.16;103231.88;5134591;27;20084;-36
2022/02/27 03:23:25;;;;;;;14.10;4.45;;;;;;;0.64;89.85;103232.97;5134401;27;20260;-36
2022/02/27 03:25:50;;;;;;;;;;;;;;;0.73;90.53;103232.28;5135151;27;20023;-36
2022/02/27 03:28:16;;;;;;;8.70;3.77;;;;;;;0.65;90.61;103232.00;5134382;27;20260;-36
2022/02/27 03:30:41;;;;;;;9.43;3.93;;;;;;;0.62;90.21;103230.41;5134890;27;20489;-36
2022/02/27 03:33:07;;;;;;;9.27;3.87;;;;;;;0.52;90.03;103214.22;5134189;27;20475;-36
2022/02/27 03:35:33;;;;;;;;;;;;;;;0.70;90.31;103230.72;5135918;27;20043;-36
2022/02/27 03:37:59;;;;;;;10.48;4.10;;;;;;;0.66;90.71;103223.03;5134309;27;19975;-36
2022/02/27 03:40:24;;;;;;;9.07;4.07;;;;;;;0.58;90.28;103220.91;5134229;27;20031;-35
2022/02/27 03:42:50;;;;;;;12.13;4.10;;;;;;;0.60;90.24;103223.50;5134231;27;20035;-36
2022/02/27 03:45:16;;;;;;;8.98;3.67;;;;;;;0.51;90.20;103228.50;5134427;27;20028;-36
2022/02/27 03:47:45;;;;;;;9.98;3.92;;;;;;;0.59;90.78;103224.44;5134394;27;20110;-36
2022/02/27 03:50:15;;;;;;;8.80;3.95;;;;;;;0.60;91.14;103219.00;5134528;27;20451;-36
2022/02/27 03:52:41;;;;;;;9.27;3.85;;;;;;;0.60;91.05;103212.84;5134335;27;20027;-36
2022/02/27 03:55:10;;;;;;;9.05;3.90;;;;;;;0.60;91.15;103215.50;5138307;27;20038;-35
2022/02/27 03:57:36;;;;;;;11.63;5.32;;;;;;;0.51;90.58;103201.00;5138168;27;20425;-35
2022/02/27 04:00:04;;;;;;;11.43;3.60;;;;;;;0.58;92.14;103206.75;5138265;27;20027;-35
2022/02/27 04:02:29;;;;;;;8.00;3.40;;;;;;;0.41;91.50;103182.16;5137722;27;20053;-34
2022/02/27 04:04:55;;;;;;;8.60;3.70;;;;;;;0.57;90.78;103221.03;5138133;27;20019;-35
2022/02/27 04:07:20;;;;;;;11.13;4.10;;;;;;;0.44;90.58;103202.38;5138042;27;20043;-35
2022/02/27 04:09:45;;;;;;;9.77;3.83;;;;;;;0.53;90.94;103217.72;5138826;27;20068;-35
2022/02/27 04:12:11;;;;;;;11.33;4.13;;;;;;;0.49;90.07;103218.91;5137842;27;20023;-35
2022/02/27 04:14:36;;;;;;;11.70;4.13;;;;;;;0.53;90.97;103215.06;5137862;27;20058;-35
2022/02/27 04:17:02;;;;;;;10.57;3.73;;;;;;;0.42;90.28;103199.00;5138352;27;20284;-35
2022/02/27 04:19:27;;;;;;;9.43;3.78;;;;;;;0.58;91.39;103220.06;5138431;27;20031;-35
2022/02/27 04:21:52;;;;;;;15.60;4.93;;;;;;;0.48;90.80;103217.19;5136135;27;20047;-35
2022/02/27 04:24:18;;;;;;;9.77;3.77;;;;;;;0.49;90.89;103209.13;5138046;27;20076;-35
2022/02/27 04:26:43;;;;;;;9.40;3.60;;;;;;;0.54;90.94;103208.78;5138467;27;20379;-35
2022/02/27 04:29:10;;;;;;;7.43;3.40;;;;;;;0.54;90.29;103203.47;5137653;27;20031;-35
2022/02/27 04:31:35;;;;;;;12.30;4.10;;;;;;;0.54;90.00;103205.25;5137537;27;20110;-35
2022/02/27 04:34:01;;;;;;;9.57;4.15;;;;;;;0.50;90.91;103207.31;5137906;27;20451;-35
2022/02/27 04:36:26;;;;;;;8.07;3.70;;;;;;;0.52;90.50;103203.56;5137612;27;20023;-35
2022/02/27 04:38:52;;;;;;;9.63;4.03;;;;;;;0.39;90.06;103188.53;5137539;27;20027;-35
2022/02/27 04:41:18;;;;;;;8.52;4.32;;;;;;;0.40;90.28;103195.59;5137154;27;20058;-35
2022/02/27 04:43:47;;;;;;;;;;;;;;;0.52;90.23;103200.03;5138144;27;20427;-35
2022/02/27 04:46:13;;;;;;;10.65;4.05;;;;;;;0.43;89.89;103206.00;5137172;27;19911;-35
2022/02/27 04:48:39;;;;;;;13.82;4.63;;;;;;;0.36;90.03;103199.41;5137341;27;20023;-35
2022/02/27 04:51:05;;;;;;;;;;;;;;;0.45;90.47;103212.94;5137872;27;20023;-35
2022/02/27 04:53:30;;;;;;;14.27;4.43;;;;;;;0.38;89.42;103210.81;5137235;27;19911;-35
2022/02/27 04:55:56;;;;;;;9.00;3.80;;;;;;;0.42;90.27;103209.63;5136808;27;20028;-35
2022/02/27 04:58:21;;;;;;;7.07;4.00;;;;;;;0.51;91.30;103207.19;5137135;27;20729;-35
2022/02/27 05:00:46;;;;;;;11.47;4.20;;;;;;;0.58;92.34;103209.41;5137350;27;20031;-35
2022/02/27 05:03:12;;;;;;;8.57;3.50;;;;;;;0.58;91.15;103210.25;5137253;27;20080;-35
2022/02/27 05:05:37;;;;;;;14.53;4.30;;;;;;;0.59;91.27;103212.00;5136806;27;20035;-35
2022/02/27 05:08:02;;;;;;;9.13;3.83;;;;;;;0.54;90.12;103207.91;5137126;27;20497;-35
2022/02/27 05:10:28;;;;;;;9.00;3.33;;;;;;;0.43;90.44;103190.03;5136566;27;20498;-35
2022/02/27 05:12:53;;;;;;;9.27;3.53;;;;;;;0.42;90.63;103175.03;5136573;27;20035;-35
2022/02/27 05:15:19;;;;;;;10.17;3.50;;;;;;;0.51;90.90;103198.34;5137405;27;20023;-35
2022/02/27 05:17:44;;;;;;;8.57;3.40;;;;;;;0.51;90.55;103203.69;5137473;27;20023;-35
2022/02/27 05:20:10;;;;;;;10.10;3.50;;;;;;;0.48;90.70;103194.06;5137561;27;20050;-35
2022/02/27 05:22:41;;;;;;;8.07;3.83;;;;;;;0.49;91.35;103194.97;5136263;27;20027;-35
2022/02/27 05:25:07;;;;;;;10.32;3.60;;;;;;;0.45;91.05;103202.28;5136612;27;20038;-35
2022/02/27 05:27:32;;;;;;;9.75;3.75;;;;;;;0.47;91.07;103203.03;5136498;27;20024;-35
2022/02/27 05:29:58;;;;;;;11.80;3.93;;;;;;;0.42;90.22;103204.31;5136288;27;20027;-35
2022/02/27 05:32:23;;;;;;;9.97;3.70;;;;;;;0.43;90.57;103206.00;5136117;27;20035;-35
2022/02/27 05:34:48;;;;;;;11.73;3.83;;;;;;;0.36;91.08;103196.75;5137112;27;20039;-35
2022/02/27 05:37:14;;;;;;;9.43;3.47;;;;;;;0.45;91.52;103204.13;5136056;27;20027;-35
2022/02/27 05:39:39;;;;;;;8.87;3.67;;;;;;;0.39;91.23;103188.53;5136059;27;20170;-35
2022/02/27 05:42:04;;;;;;;8.43;3.30;;;;;;;0.49;91.48;103193.16;5136540;27;20102;-35
2022/02/27 05:44:30;;;;;;;9.53;3.90;;;;;;;0.51;91.94;103190.38;5136483;27;20038;-35
2022/02/27 05:46:55;;;;;;;8.80;3.47;;;;;;;0.58;91.85;103196.94;5135778;27;20476;-35
2022/02/27 05:49:20;;;;;;;13.23;3.50;;;;;;;0.50;90.41;103200.16;5136188;27;20085;-35
2022/02/27 05:51:47;;;;;;;11.80;4.17;;;;;;;0.55;90.88;103205.16;5135670;27;20057;-36
2022/02/27 05:54:14;;;;;;;7.93;3.42;;;;;;;0.51;91.01;103198.34;5135925;27;20022;-36
2022/02/27 05:56:40;;;;;;;8.98;3.05;;;;;;;0.49;90.14;103200.28;5136371;27;20031;-35
2022/02/27 05:59:05;;;;;;;11.48;4.63;;;;;;;0.47;90.27;103207.50;5137036;27;20114;-35
2022/02/27 06:01:30;;;;;;;11.43;4.00;;;;;;;0.44;90.61;103202.38;5135750;27;20468;-36
2022/02/27 06:03:55;;;;;;;7.57;3.83;;;;;;;0.37;90.39;103207.28;5135570;27;20485;-35
2022/02/27 06:06:21;;;;;;;10.33;3.57;;;;;;;0.27;90.71;103192.91;5135873;27;20038;-36
2022/02/27 06:08:46;;;;;;;11.60;4.30;;;;;;;0.43;91.24;103212.19;5135991;27;20047;-36
2022/02/27 06:11:11;;;;;;;13.17;4.63;;;;;;;0.36;91.59;103194.09;5135727;27;20063;-36
2022/02/27 06:13:37;;;;;;;7.83;3.77;;;;;;;0.42;91.18;103215.81;5135620;27;20453;-36
2022/02/27 06:16:02;;;;;;;16.23;4.30;;;;;;;0.23;90.29;103194.94;5135339;27;20169;-36
2022/02/27 06:18:28;;;;;;;8.17;3.20;;;;;;;0.37;91.09;103214.44;5134674;27;20027;-36
2022/02/27 06:20:53;;;;;;;9.93;3.87;;;;;;;0.39;91.20;103209.84;5135594;27;20257;-36
2022/02/27 06:23:18;;;;;;;9.27;3.67;;;;;;;0.38;91.50;103211.66;5135363;27;20027;-36
2022/02/27 06:25:44;;;;;;;10.53;4.03;;;;;;;0.44;91.25;103210.38;5135879;27;20023;-36
2022/02/27 06:28:09;;;;;;;11.03;3.90;;;;;;;0.40;90.83;103200.91;5135323;27;20031;-36
2022/02/27 06:30:34;;;;;;;7.93;3.53;;;;;;;0.29;90.38;103201.63;5135516;27;20022;-36
2022/02/27 06:33:00;;;;;;;8.73;3.30;;;;;;;0.33;90.55;103205.78;5134258;27;20027;-36
2022/02/27 06:35:26;;;;;;;11.23;3.72;;;;;;;0.24;91.06;103191.34;5135651;27;20409;-36
2022/02/27 06:37:55;;;;;;;9.33;3.77;;;;;;;0.28;91.33;103202.59;5134863;27;20031;-36
2022/02/27 06:40:21;;;;;;;9.15;3.70;;;;;;;0.27;91.06;103208.03;5135956;27;20098;-36
2022/02/27 06:42:47;;;;;;;8.20;3.42;;;;;;;0.25;91.59;103208.16;5134701;27;20031;-36
2022/02/27 06:45:14;;;;;;;6.93;3.35;;;;;;;0.24;91.01;103212.63;5135564;27;20545;-36
2022/02/27 06:47:39;;;;;;;10.40;3.80;;;;;;;0.32;91.19;103219.22;5134909;27;20031;-36
2022/02/27 06:50:06;;;;;;;7.27;3.37;;;;;;;0.31;91.27;103217.53;5134622;27;20033;-36
2022/02/27 06:52:32;;;;;;;8.63;3.53;;;;;;;0.29;90.88;103228.25;5134663;27;20331;-35
2022/02/27 06:54:58;;;;;;;10.57;3.85;;;;;;;0.30;90.75;103227.31;5135640;27;20058;-36
2022/02/27 06:57:23;;;;;;;8.80;3.60;;;;;;;0.23;90.96;103210.91;5133516;27;20027;-36
2022/02/27 06:59:48;;;;;;;9.55;4.22;;;;;;;0.33;90.54;103223.59;5135381;27;20080;-36
2022/02/27 07:02:14;;;;;;;11.40;3.53;;;;;;;0.36;90.66;103234.03;5134492;27;20595;-36
2022/02/27 07:04:40;;;;;;;10.90;4.03;;;;;;;0.38;90.36;103235.59;5134983;27;20387;-36
2022/02/27 07:07:05;;;;;;;8.30;4.13;;;;;;;0.37;89.85;103228.59;5134570;27;20470;-36
2022/02/27 07:09:31;;;;;;;8.85;3.40;;;;;;;0.42;90.56;103228.28;5134911;27;20019;-36
2022/02/27 07:11:56;;;;;;;9.00;3.27;;;;;;;0.35;89.75;103211.88;5134477;27;20095;-36
2022/02/27 07:14:21;;;;;;;5.83;3.03;;;;;;;0.52;90.39;103224.00;5134351;27;20019;-36
2022/02/27 07:16:48;;;;;;;8.27;3.80;;;;;;;0.50;89.76;103224.13;5134284;27;20524;-36
2022/02/27 07:19:14;;;;;;;6.65;3.20;;;;;;;0.56;89.97;103222.84;5134428;27;20031;-36
2022/02/27 07:21:39;;;;;;;10.67;3.47;;;;;;;0.56;89.33;103219.34;5134782;27;20057;-35
2022/02/27 07:24:05;;;;;;;8.90;3.23;;;;;;;0.63;89.10;103220.59;5135013;27;20027;-35
2022/02/27 07:26:31;;;;;;;5.90;3.17;;;;;;;0.70;89.56;103214.72;5135011;27;20039;-35
2022/02/27 07:28:56;;;;;;;7.78;3.22;;;;;;;0.81;89.02;103226.44;5133945;27;20041;-35
2022/02/27 07:31:21;;;;;;;11.20;3.40;;;;;;;0.75;87.71;103207.28;5134224;27;20447;-35
2022/02/27 07:33:48;;;;;;;8.73;3.27;;;;;;;0.91;88.09;103219.50;5134068;27;20035;-35
2022/02/27 07:36:13;;;;;;;7.78;3.03;;;;;;;1.04;88.39;103212.34;5134540;27;20125;-35
2022/02/27 07:38:39;;;;;;;8.90;2.90;;;;;;;1.02;87.46;103196.47;5134044;27;20102;-35
2022/02/27 07:41:04;;;;;;;10.60;3.27;;;;;;;1.12;87.33;103199.28;5134322;27;20082;-35
2022/02/27 07:43:30;;;;;;;9.83;3.23;;;;;;;1.24;86.36;103217.06;5133949;27;20519;-35
2022/02/27 07:45:55;;;;;;;9.83;3.73;;;;;;;1.28;86.14;103218.53;5134557;27;20226;-35
2022/02/27 07:48:20;;;;;;;7.73;3.27;;;;;;;1.36;85.85;103209.13;5134110;27;20348;-35
2022/02/27 07:50:46;;;;;;;9.20;2.57;;;;;;;1.43;86.17;103205.91;5134128;27;20047;-35
2022/02/27 07:53:11;;;;;;;11.02;3.15;;;;;;;1.60;86.27;103201.97;5134174;28;20023;-35
2022/02/27 07:55:37;;;;;;;6.87;2.73;;;;;;;1.70;85.59;103194.97;5134421;27;20043;-35
2022/02/27 07:58:02;;;;;;;6.53;3.25;;;;;;;1.77;85.17;103203.38;5132855;28;20038;-35
2022/02/27 08:00:27;;;;;;;9.00;3.50;;;;;;;1.81;84.77;103191.53;5134406;27;20034;-35
2022/02/27 08:02:53;;;;;;;8.07;2.97;;;;;;;1.91;84.13;103197.00;5134503;27;20321;-35
2022/02/27 08:05:19;;;;;;;12.93;4.47;;;;;;;1.98;83.26;103203.56;5133772;27;20022;-35
2022/02/27 08:07:45;;;;;;;8.75;3.15;;;;;;;1.97;83.13;103185.88;5133621;27;20027;-35
2022/02/27 08:10:10;;;;;;;9.17;3.07;;;;;;;2.21;82.86;103220.50;5134716;27;20035;-35
2022/02/27 08:12:41;;;;;;;6.93;2.53;;;;;;;2.25;82.78;103204.13;5134597;27;20389;-35
2022/02/27 08:15:07;;;;;;;11.25;2.85;;;;;;;2.29;82.02;103216.28;5133900;27;20031;-35
2022/02/27 08:17:33;;;;;;;9.45;3.90;;;;;;;2.39;81.42;103215.53;5133735;27;20046;-35
2022/02/27 08:19:59;;;;;;;7.13;2.55;;;;;;;2.42;82.02;103201.97;5134125;27;20433;-35
2022/02/27 08:22:24;;;;;;;6.17;2.73;;;;;;;2.60;81.10;103215.69;5133816;27;20031;-35
2022/02/27 08:24:49;;;;;;;5.90;2.90;;;;;;;2.64;81.63;103201.97;5134502;27;20024;-35
2022/02/27 08:27:15;;;;;;;5.07;2.33;;;;;;;2.80;80.73;103223.84;5133561;27;20027;-42
2022/02/27 08:29:42;;;;;;;8.37;2.87;;;;;;;2.83;79.86;103220.03;5134099;27;20028;-35
2022/02/27 08:32:07;;;;;;;6.10;2.50;;;;;;;2.96;80.99;103222.59;5134143;27;20425;-35
2022/02/27 08:34:33;;;;;;;7.63;3.47;;;;;;;3.03;80.46;103230.03;5134270;27;20047;-35
2022/02/27 08:36:58;;;;;;;6.47;2.80;;;;;;;3.12;79.29;103233.75;5133977;27;20463;-35
2022/02/27 08:39:23;;;;;;;7.20;2.60;;;;;;;3.13;79.34;103216.75;5133569;27;20019;-35
2022/02/27 08:41:48;;;;;;;9.40;3.13;;;;;;;3.25;78.96;103233.63;5136519;27;20031;-35
2022/02/27 08:44:14;;;;;;;8.53;3.13;;;;;;;3.25;77.37;103234.47;5135525;27;20035;-35
2022/02/27 08:46:39;;;;;;;7.17;2.93;;;;;;;3.27;77.82;103221.84;5137361;27;20031;-35
2022/02/27 08:49:08;;;;;;;7.20;2.50;;;;;;;3.34;77.64;103217.69;5137068;27;20459;-36
2022/02/27 08:51:34;;;;;;;7.38;3.30;;;;;;;3.45;75.93;103226.66;5137348;27;20025;-35
2022/02/27 08:54:00;;;;;;;6.45;3.25;;;;;;;3.49;75.91;103231.63;5137085;27;20059;-35
2022/02/27 08:56:25;;;;;;;8.45;3.45;;;;;;;3.55;76.16;103236.47;5137133;27;20513;-36
2022/02/27 08:58:51;;;;;;;7.93;3.97;;;;;;;3.55;76.08;103215.06;5137803;27;20076;-35
2022/02/27 09:01:17;;;;;;;5.13;2.90;;;;;;;3.73;75.59;103228.75;5137040;27;20027;-35
2022/02/27 09:03:42;;;;;;;5.13;2.57;;;;;;;3.78;75.42;103223.84;5136965;27;20042;-35
2022/02/27 09:06:08;;;;;;;5.50;3.23;;;;;;;3.91;74.95;103225.50;5137288;27;20163;-36
2022/02/27 09:08:34;;;;;;;8.65;3.22;;;;;;;3.99;74.73;103236.41;5136773;27;20038;-36
2022/02/27 09:11:00;;;;;;;10.90;3.97;;;;;;;4.01;73.32;103234.47;5137072;27;20075;-36
2022/02/27 09:13:25;;;;;;;7.07;3.37;;;;;;;4.08;73.86;103236.47;5136862;27;20106;-36
2022/02/27 09:15:50;;;;;;;8.13;3.40;;;;;;;4.05;72.31;103225.16;5137609;27;20020;-36
2022/02/27 09:18:16;;;;;;;7.17;2.90;;;;;;;4.20;72.33;103231.94;5136696;27;20031;-36
2022/02/27 09:20:43;;;;;;;6.20;3.03;;;;;;;4.16;71.65;103221.59;5136929;27;20390;-36
2022/02/27 09:23:08;;;;;;;6.07;2.53;;;;;;;4.35;72.23;103243.16;5136705;27;20031;-36
2022/02/27 09:25:34;;;;;;;7.00;3.25;;;;;;;4.30;71.54;103222.13;5136240;27;20034;-36
2022/02/27 09:27:59;;;;;;;5.60;2.90;;;;;;;4.47;71.86;103233.22;5136102;27;20030;-36
2022/02/27 09:30:24;;;;;;;6.43;3.20;;;;;;;4.50;70.50;103227.59;5136543;27;20141;-36
2022/02/27 09:32:50;;;;;;;9.07;3.73;;;;;;;4.56;72.28;103219.00;5136116;27;20464;-35
2022/02/27 09:35:15;;;;;;;5.03;3.00;;;;;;;4.69;71.40;103224.16;5137062;27;20065;-36
2022/02/27 09:37:40;;;;;;;5.73;3.17;;;;;;;4.75;71.59;103223.63;5136383;27;20111;-36
2022/02/27 09:40:07;;;;;;;9.60;3.67;;;;;;;4.74;71.28;103212.06;5136521;27;20047;-36
2022/02/27 09:42:33;;;;;;;7.45;3.50;;;;;;;4.82;69.42;103220.25;5136689;27;20023;-36
2022/02/27 09:45:00;;;;;;;8.85;3.42;;;;;;;4.94;70.89;103214.81;5137245;27;20367;-36
2022/02/27 09:47:26;;;;;;;8.55;2.80;;;;;;;5.03;70.30;103214.00;5136164;27;20033;-36
2022/02/27 09:49:53;;;;;;;6.13;3.20;;;;;;;5.07;70.32;103210.03;5136667;27;20069;-36
2022/02/27 09:52:21;;;;;;;7.65;3.30;;;;;;;5.13;70.20;103196.09;5135754;27;20364;-36
2022/02/27 09:54:48;;;;;;;6.65;3.45;;;;;;;5.19;68.01;103208.09;5136732;27;20054;-36
2022/02/27 09:57:22;;;;;;;7.18;2.85;;;;;;;5.25;69.17;103205.69;5135976;27;20059;-36
2022/02/27 09:59:49;;;;;;;7.90;3.17;;;;;;;5.26;68.42;103196.66;5136165;27;20042;-36
2022/02/27 10:02:15;;;;;;;;;;;;;;;5.45;69.41;103203.91;5134958;27;20035;-36
2022/02/27 10:04:42;;;;;;;5.32;2.78;;;;;;;5.32;65.57;103197.94;5136448;27;19951;-35
2022/02/27 10:07:13;;;;;;;6.38;2.95;;;;;;;5.41;65.74;103208.69;5136132;27;20086;-36
2022/02/27 10:09:40;;;;;;;5.50;2.80;;;;;;;5.49;68.17;103193.75;5136021;27;20023;-36
2022/02/27 10:12:22;;;;;;;5.65;3.13;;;;;;;5.57;66.11;103185.84;5135783;27;20031;-36
2022/02/27 10:15:01;;;;;;;9.60;4.63;;;;;;;5.76;66.67;103199.25;5135761;27;20054;-36
2022/02/27 10:17:39;;;;;;;6.43;3.40;;;;;;;5.82;65.55;103189.78;5136229;27;20023;-36
2022/02/27 10:20:09;;;;;;;5.32;2.95;;;;;;;5.78;65.20;103175.78;5135476;27;20042;-36
2022/02/27 10:22:40;;;;;;;8.43;3.40;;;;;;;5.88;63.88;103184.69;5136069;27;20069;-36
2022/02/27 10:25:11;;;;;;;5.85;3.30;;;;;;;5.93;65.13;103190.50;5135519;27;20023;-37
2022/02/27 10:28:04;;;;;;;4.65;3.20;;;;;;;6.11;66.25;103187.09;5135611;27;20077;-36
2022/02/27 10:30:36;;;;;;;6.78;3.03;;;;;;;6.17;63.14;103183.81;5133899;27;20047;-36
2022/02/27 10:33:07;;;;;;;5.82;2.80;;;;;;;6.14;62.37;103189.47;5135482;27;20102;-36
2022/02/27 10:35:46;;;;;;;4.07;2.53;;;;;;;6.20;62.72;103188.94;5134856;27;20054;-36
2022/02/27 10:38:55;;;;;;;6.47;2.80;;;;;;;6.31;62.65;103185.22;5135705;27;20083;-36
2022/02/27 10:41:21;;;;;;;5.82;2.42;;;;;;;6.40;61.55;103174.44;5135017;27;20038;-36
2022/02/27 10:43:48;;;;;;;7.55;2.83;;;;;;;6.24;60.64;103147.31;5134709;27;20146;-36
2022/02/27 10:46:18;;;;;;;5.57;2.83;;;;;;;6.45;60.04;103177.53;5135262;27;20034;-36
2022/02/27 10:48:43;;;;;;;7.78;3.38;;;;;;;6.50;62.08;103182.47;5134701;27;20088;-36
2022/02/27 10:51:11;;;;;;;4.93;2.55;;;;;;;6.52;61.34;103177.78;5134966;27;20479;-36
2022/02/27 10:53:39;;;;;;;8.02;3.40;;;;;;;6.64;61.22;103173.91;5135418;27;20027;-36
2022/02/27 10:56:10;;;;;;;5.50;2.97;;;;;;;6.69;61.38;103184.22;5135437;27;20027;-36
2022/02/27 10:58:49;;;;;;;4.53;2.78;;;;;;;6.62;60.35;103169.66;5135367;27;20034;-36
2022/02/27 11:01:20;;;;;;;5.43;2.67;;;;;;;6.63;60.19;103153.38;5134996;27;20364;-36
2022/02/27 11:03:51;;;;;;;6.03;2.80;;;;;;;6.73;60.26;103180.22;5134058;27;20047;-36
2022/02/27 11:06:17;;;;;;;5.80;2.55;;;;;;;6.82;60.18;103173.13;5134930;27;20030;-36
2022/02/27 11:08:43;;;;;;;5.88;2.67;;;;;;;6.76;59.01;103157.59;5134680;27;20495;-36
2022/02/27 11:11:09;;;;;;;5.43;2.83;;;;;;;6.78;58.09;103163.66;5135087;27;20027;-35
2022/02/27 11:13:34;;;;;;;4.60;2.50;;;;;;;6.99;59.69;103164.25;5134621;27;20027;-35
2022/02/27 11:16:01;;;;;;;5.85;2.88;;;;;;;7.02;58.00;103155.03;5134618;27;20023;-36
2022/02/27 11:18:27;;;;;;;5.88;2.90;;;;;;;7.05;57.46;103143.97;5134413;27;20034;-36
2022/02/27 11:20:55;;;;;;;4.72;2.40;;;;;;;7.21;59.72;103147.66;5134273;27;20031;-36
2022/02/27 11:23:21;;;;;;;5.38;2.78;;;;;;;7.25;57.37;103144.69;5134140;27;20038;-36
2022/02/27 11:25:47;;;;;;;5.25;2.55;;;;;;;7.39;57.84;103136.06;5134749;27;20027;-36
2022/02/27 11:28:14;;;;;;;;;;;;;;;7.53;57.15;103134.69;5134588;27;20061;-36